sensor_id;sensor_type;location;lat;lon;timestamp;pressure;altitude;pressure_sealevel;temperature;humidity
75972;BME280;64651;47.540;19.088;2024-03-23T00:56:58;100144.16;;;8.76;71.89
75972;BME280;64651;47.540;19.088;2024-03-23T01:01:59;100129.31;;;8.62;72.14
75972;BME280;64651;47.540;19.088;2024-03-23T01:07:00;100123.84;;;8.57;72.68
75972;BME280;64651;47.540;19.088;2024-03-23T01:12:02;100119.72;;;8.54;73.28
75972;BME280;64651;47.540;19.088;2024-03-23T01:17:04;100113.69;;;8.52;73.69
75972;BME280;64651;47.540;19.088;2024-03-23T01:22:05;100112.03;;;8.41;74.34
75972;BME280;64651;47.540;19.088;2024-03-23T01:27:06;100094.78;;;8.45;73.94
75972;BME280;64651;47.540;19.088;2024-03-23T01:32:07;100088.72;;;8.48;73.82
75972;BME280;64651;47.540;19.088;2024-03-23T01:37:08;100084.63;;;8.51;73.32
75972;BME280;64651;47.540;19.088;2024-03-23T01:42:09;100100.25;;;8.35;73.38
75972;BME280;64651;47.540;19.088;2024-03-23T01:47:11;100095.84;;;8.29;73.43
75972;BME280;64651;47.540;19.088;2024-03-23T01:52:13;100084.31;;;8.27;73.42
75972;BME280;64651;47.540;19.088;2024-03-23T01:57:14;100086.75;;;8.13;73.94
75972;BME280;64651;47.540;19.088;2024-03-23T02:02:15;100083.47;;;8.17;73.76
75972;BME280;64651;47.540;19.088;2024-03-23T02:07:18;100075.22;;;8.06;74.03
75972;BME280;64651;47.540;19.088;2024-03-23T02:12:19;100076.53;;;7.89;74.51
75972;BME280;64651;47.540;19.088;2024-03-23T02:17:23;100074.37;;;7.86;74.78
75972;BME280;64651;47.540;19.088;2024-03-23T02:22:24;100064.19;;;7.81;74.87
75972;BME280;64651;47.540;19.088;2024-03-23T02:27:25;100060.91;;;7.74;75.35
75972;BME280;64651;47.540;19.088;2024-03-23T02:32:26;100047.28;;;8.04;75.07
75972;BME280;64651;47.540;19.088;2024-03-23T02:37:28;100046.19;;;8.15;74.46
75972;BME280;64651;47.540;19.088;2024-03-23T02:42:29;100040.72;;;8.10;74.75
75972;BME280;64651;47.540;19.088;2024-03-23T02:47:30;100039.38;;;8.28;74.72
75972;BME280;64651;47.540;19.088;2024-03-23T02:52:32;100024.56;;;8.49;73.90
75972;BME280;64651;47.540;19.088;2024-03-23T02:57:33;100022.94;;;8.53;73.89
75972;BME280;64651;47.540;19.088;2024-03-23T03:02:34;100018.84;;;8.46;74.34
75972;BME280;64651;47.540;19.088;2024-03-23T03:07:35;100012.81;;;8.39;74.66
75972;BME280;64651;47.540;19.088;2024-03-23T03:12:38;100007.59;;;8.32;75.41
75972;BME280;64651;47.540;19.088;2024-03-23T03:17:40;100013.91;;;8.33;75.65
75972;BME280;64651;47.540;19.088;2024-03-23T03:22:41;100001.81;;;8.29;76.42
75972;BME280;64651;47.540;19.088;2024-03-23T03:27:42;99996.59;;;8.27;76.83
75972;BME280;64651;47.540;19.088;2024-03-23T03:32:43;100010.03;;;8.29;77.26
75972;BME280;64651;47.540;19.088;2024-03-23T03:37:44;99996.91;;;8.31;77.30
75972;BME280;64651;47.540;19.088;2024-03-23T03:42:45;99993.31;;;8.25;77.62
75972;BME280;64651;47.540;19.088;2024-03-23T03:47:46;99996.59;;;8.22;77.95
75972;BME280;64651;47.540;19.088;2024-03-23T03:52:48;99992.22;;;8.26;77.96
75972;BME280;64651;47.540;19.088;2024-03-23T03:57:49;99985.91;;;8.26;78.21
75972;BME280;64651;47.540;19.088;2024-03-23T04:02:50;99973.34;;;8.35;77.74
75972;BME280;64651;47.540;19.088;2024-03-23T04:07:51;99977.19;;;8.34;77.97
75972;BME280;64651;47.540;19.088;2024-03-23T04:12:53;99983.75;;;8.38;77.73
75972;BME280;64651;47.540;19.088;2024-03-23T04:17:54;99985.94;;;8.46;77.40
75972;BME280;64651;47.540;19.088;2024-03-23T04:22:55;99978.81;;;8.40;77.72
75972;BME280;64651;47.540;19.088;2024-03-23T04:27:57;99973.59;;;8.43;77.48
75972;BME280;64651;47.540;19.088;2024-03-23T04:32:58;99966.47;;;8.47;77.40
75972;BME280;64651;47.540;19.088;2024-03-23T04:37:59;99973.06;;;8.41;77.54
75972;BME280;64651;47.540;19.088;2024-03-23T04:43:00;99966.19;;;8.44;77.41
75972;BME280;64651;47.540;19.088;2024-03-23T04:48:02;99976.34;;;8.43;77.43
75972;BME280;64651;47.540;19.088;2024-03-23T04:53:03;99967.00;;;8.44;77.53
75972;BME280;64651;47.540;19.088;2024-03-23T04:58:04;99968.41;;;8.47;77.92
75972;BME280;64651;47.540;19.088;2024-03-23T05:03:06;99951.94;;;8.47;77.62
75972;BME280;64651;47.540;19.088;2024-03-23T05:08:07;99960.41;;;8.71;76.98
75972;BME280;64651;47.540;19.088;2024-03-23T05:13:08;99963.16;;;8.55;77.59
75972;BME280;64651;47.540;19.088;2024-03-23T05:18:10;99959.25;;;8.87;76.59
75972;BME280;64651;47.540;19.088;2024-03-23T05:23:11;99958.69;;;8.95;75.95
75972;BME280;64651;47.540;19.088;2024-03-23T05:28:12;99958.38;;;9.07;75.57
75972;BME280;64651;47.540;19.088;2024-03-23T05:33:13;99952.56;;;9.13;75.32
75972;BME280;64651;47.540;19.088;2024-03-23T05:38:14;99952.00;;;9.16;75.33
75972;BME280;64651;47.540;19.088;2024-03-23T05:43:15;99948.66;;;9.24;74.95
75972;BME280;64651;47.540;19.088;2024-03-23T05:48:17;99944.56;;;9.27;74.73
75972;BME280;64651;47.540;19.088;2024-03-23T05:53:18;99937.94;;;9.28;74.82
75972;BME280;64651;47.540;19.088;2024-03-23T05:58:23;99934.69;;;9.26;74.94
75972;BME280;64651;47.540;19.088;2024-03-23T06:03:24;99933.16;;;9.49;74.09
75972;BME280;64651;47.540;19.088;2024-03-23T06:08:26;99944.94;;;9.54;73.95
75972;BME280;64651;47.540;19.088;2024-03-23T06:13:27;99939.59;;;9.73;73.12
75972;BME280;64651;47.540;19.088;2024-03-23T06:18:30;99922.34;;;10.01;72.03
75972;BME280;64651;47.540;19.088;2024-03-23T06:23:32;99919.34;;;10.32;71.07
75972;BME280;64651;47.540;19.088;2024-03-23T06:28:33;99906.53;;;10.75;69.49
75972;BME280;64651;47.540;19.088;2024-03-23T06:33:35;99891.78;;;10.66;69.41
75972;BME280;64651;47.540;19.088;2024-03-23T06:38:39;99881.19;;;10.54;70.14
75972;BME280;64651;47.540;19.088;2024-03-23T06:43:40;99885.88;;;10.77;69.68
75972;BME280;64651;47.540;19.088;2024-03-23T06:48:41;99887.78;;;11.01;68.60
75972;BME280;64651;47.540;19.088;2024-03-23T06:53:44;99899.78;;;11.47;67.10
75972;BME280;64651;47.540;19.088;2024-03-23T06:58:45;99901.97;;;11.69;65.76
75972;BME280;64651;47.540;19.088;2024-03-23T07:03:46;99898.38;;;11.68;65.64
75972;BME280;64651;47.540;19.088;2024-03-23T07:08:47;99888.34;;;11.40;66.58
75972;BME280;64651;47.540;19.088;2024-03-23T07:13:53;99881.41;;;11.43;66.71
75972;BME280;64651;47.540;19.088;2024-03-23T07:18:57;99874.50;;;11.83;65.42
75972;BME280;64651;47.540;19.088;2024-03-23T07:23:59;99867.12;;;12.10;64.49
75972;BME280;64651;47.540;19.088;2024-03-23T07:29:01;99876.38;;;12.88;61.79
75972;BME280;64651;47.540;19.088;2024-03-23T07:34:02;99860.03;;;13.05;60.92
75972;BME280;64651;47.540;19.088;2024-03-23T07:39:04;99858.28;;;13.09;60.51
75972;BME280;64651;47.540;19.088;2024-03-23T07:44:05;99842.63;;;13.18;59.98
75972;BME280;64651;47.540;19.088;2024-03-23T07:49:06;99822.72;;;13.66;58.88
75972;BME280;64651;47.540;19.088;2024-03-23T07:54:08;99824.00;;;13.10;60.68
75972;BME280;64651;47.540;19.088;2024-03-23T07:59:09;99818.06;;;13.75;58.52
75972;BME280;64651;47.540;19.088;2024-03-23T08:04:11;99816.78;;;14.03;58.31
75972;BME280;64651;47.540;19.088;2024-03-23T08:09:12;99820.53;;;13.76;59.10
75972;BME280;64651;47.540;19.088;2024-03-23T08:14:13;99815.38;;;13.84;59.10
75972;BME280;64651;47.540;19.088;2024-03-23T08:19:15;99809.81;;;14.85;56.63
75972;BME280;64651;47.540;19.088;2024-03-23T08:24:16;99800.44;;;15.46;54.46
75972;BME280;64651;47.540;19.088;2024-03-23T08:29:17;99788.03;;;15.69;53.61
75972;BME280;64651;47.540;19.088;2024-03-23T08:34:18;99789.47;;;15.93;52.84
75972;BME280;64651;47.540;19.088;2024-03-23T08:39:19;99779.91;;;15.56;53.51
75972;BME280;64651;47.540;19.088;2024-03-23T08:44:21;99771.16;;;16.09;52.68
75972;BME280;64651;47.540;19.088;2024-03-23T08:49:40;99782.00;;;15.85;53.34
75972;BME280;64651;47.540;19.088;2024-03-23T08:54:41;99764.84;;;16.29;51.79
75972;BME280;64651;47.540;19.088;2024-03-23T08:59:42;99758.81;;;16.94;49.81
75972;BME280;64651;47.540;19.088;2024-03-23T09:04:44;99752.38;;;18.10;47.88
75972;BME280;64651;47.540;19.088;2024-03-23T09:09:48;99752.94;;;19.53;44.62
75972;BME280;64651;47.540;19.088;2024-03-23T09:14:50;99737.69;;;19.22;44.18
75972;BME280;64651;47.540;19.088;2024-03-23T09:19:51;99728.34;;;21.92;39.36
75972;BME280;64651;47.540;19.088;2024-03-23T09:24:52;99713.47;;;21.88;38.49
75972;BME280;64651;47.540;19.088;2024-03-23T09:29:53;99705.31;;;21.60;39.12
75972;BME280;64651;47.540;19.088;2024-03-23T09:34:55;99711.56;;;20.45;41.49
75972;BME280;64651;47.540;19.088;2024-03-23T09:39:56;99696.06;;;24.92;34.38
75972;BME280;64651;47.540;19.088;2024-03-23T09:44:57;99673.37;;;24.71;34.46
75972;BME280;64651;47.540;19.088;2024-03-23T09:50:01;99672.59;;;22.82;37.00
75972;BME280;64651;47.540;19.088;2024-03-23T09:55:16;99668.47;;;22.23;38.25
75972;BME280;64651;47.540;19.088;2024-03-23T10:00:17;99654.66;;;21.46;39.58
75972;BME280;64651;47.540;19.088;2024-03-23T10:05:22;99656.47;;;21.00;40.83
75972;BME280;64651;47.540;19.088;2024-03-23T10:10:27;99642.66;;;22.37;38.71
75972;BME280;64651;47.540;19.088;2024-03-23T10:15:28;99620.53;;;25.04;33.89
75972;BME280;64651;47.540;19.088;2024-03-23T10:20:29;99616.56;;;25.16;33.25
75972;BME280;64651;47.540;19.088;2024-03-23T10:25:30;99606.06;;;24.37;33.42
75972;BME280;64651;47.540;19.088;2024-03-23T10:30:32;99600.19;;;23.61;34.61
75972;BME280;64651;47.540;19.088;2024-03-23T10:35:33;99592.97;;;24.62;31.42
75972;BME280;64651;47.540;19.088;2024-03-23T10:40:35;99583.09;;;24.28;31.83
75972;BME280;64651;47.540;19.088;2024-03-23T10:45:36;99573.50;;;23.08;34.67
75972;BME280;64651;47.540;19.088;2024-03-23T10:50:37;99569.72;;;22.63;35.32
75972;BME280;64651;47.540;19.088;2024-03-23T10:55:40;99563.84;;;22.72;34.11
75972;BME280;64651;47.540;19.088;2024-03-23T11:00:42;99547.06;;;22.75;34.08
75972;BME280;64651;47.540;19.088;2024-03-23T11:05:47;99545.53;;;23.99;32.33
75972;BME280;64651;47.540;19.088;2024-03-23T11:10:48;99522.66;;;27.62;27.33
75972;BME280;64651;47.540;19.088;2024-03-23T11:15:49;99513.00;;;29.63;24.78
75972;BME280;64651;47.540;19.088;2024-03-23T11:20:50;99503.47;;;30.83;23.42
75972;BME280;64651;47.540;19.088;2024-03-23T11:25:51;99492.25;;;30.76;23.44
75972;BME280;64651;47.540;19.088;2024-03-23T11:30:52;99480.25;;;29.05;24.80
75972;BME280;64651;47.540;19.088;2024-03-23T11:35:54;99475.50;;;29.25;25.05
75972;BME280;64651;47.540;19.088;2024-03-23T11:40:55;99458.94;;;30.96;22.91
75972;BME280;64651;47.540;19.088;2024-03-23T11:45:56;99457.31;;;29.73;22.96
75972;BME280;64651;47.540;19.088;2024-03-23T11:50:58;99447.69;;;32.06;20.69
75972;BME280;64651;47.540;19.088;2024-03-23T11:56:00;99424.88;;;29.97;22.06
75972;BME280;64651;47.540;19.088;2024-03-23T12:01:02;99439.38;;;27.70;24.82
75972;BME280;64651;47.540;19.088;2024-03-23T12:06:04;99416.56;;;25.94;27.63
75972;BME280;64651;47.540;19.088;2024-03-23T12:11:16;99395.81;;;24.02;30.22
75972;BME280;64651;47.540;19.088;2024-03-23T12:16:20;99417.91;;;22.98;31.71
75972;BME280;64651;47.540;19.088;2024-03-23T12:21:21;99397.00;;;22.55;32.25
75972;BME280;64651;47.540;19.088;2024-03-23T12:26:23;99402.72;;;21.99;33.01
75972;BME280;64651;47.540;19.088;2024-03-23T12:31:24;99386.16;;;21.60;33.54
75972;BME280;64651;47.540;19.088;2024-03-23T12:36:26;99383.63;;;21.52;33.29
75972;BME280;64651;47.540;19.088;2024-03-23T12:41:27;99370.19;;;21.34;33.19
75972;BME280;64651;47.540;19.088;2024-03-23T12:46:28;99361.44;;;21.66;33.02
75972;BME280;64651;47.540;19.088;2024-03-23T12:51:29;99337.44;;;21.65;33.09
75972;BME280;64651;47.540;19.088;2024-03-23T12:56:31;99340.97;;;21.32;33.37
75972;BME280;64651;47.540;19.088;2024-03-23T13:01:32;99330.84;;;21.24;33.60
75972;BME280;64651;47.540;19.088;2024-03-23T13:06:34;99328.53;;;21.06;33.69
75972;BME280;64651;47.540;19.088;2024-03-23T13:11:35;99332.03;;;21.00;33.83
75972;BME280;64651;47.540;19.088;2024-03-23T13:16:36;99326.16;;;20.59;34.64
75972;BME280;64651;47.540;19.088;2024-03-23T13:21:38;99323.00;;;20.61;34.41
75972;BME280;64651;47.540;19.088;2024-03-23T13:26:39;99304.66;;;20.63;34.31
75972;BME280;64651;47.540;19.088;2024-03-23T13:31:40;99305.44;;;20.60;34.17
75972;BME280;64651;47.540;19.088;2024-03-23T13:36:42;99304.53;;;20.56;34.26
75972;BME280;64651;47.540;19.088;2024-03-23T13:41:44;99291.25;;;20.50;34.26
75972;BME280;64651;47.540;19.088;2024-03-23T13:46:46;99291.38;;;20.34;34.38
75972;BME280;64651;47.540;19.088;2024-03-23T13:51:48;99288.88;;;20.29;34.63
75972;BME280;64651;47.540;19.088;2024-03-23T13:56:53;99291.34;;;20.11;34.41
75972;BME280;64651;47.540;19.088;2024-03-23T14:01:55;99277.44;;;20.15;34.98
75972;BME280;64651;47.540;19.088;2024-03-23T14:06:56;99262.56;;;20.30;34.20
75972;BME280;64651;47.540;19.088;2024-03-23T14:11:58;99261.25;;;20.24;34.51
75972;BME280;64651;47.540;19.088;2024-03-23T14:17:01;99250.34;;;20.38;34.54
75972;BME280;64651;47.540;19.088;2024-03-23T14:22:02;99244.16;;;20.29;34.53
75972;BME280;64651;47.540;19.088;2024-03-23T14:27:03;99246.31;;;20.36;34.62
75972;BME280;64651;47.540;19.088;2024-03-23T14:32:06;99232.91;;;20.25;34.96
75972;BME280;64651;47.540;19.088;2024-03-23T14:37:07;99236.41;;;20.19;34.90
75972;BME280;64651;47.540;19.088;2024-03-23T14:42:08;99233.97;;;20.37;34.84
75972;BME280;64651;47.540;19.088;2024-03-23T14:47:10;99225.97;;;20.16;34.92
75972;BME280;64651;47.540;19.088;2024-03-23T14:52:12;99211.16;;;20.12;35.03
75972;BME280;64651;47.540;19.088;2024-03-23T14:57:13;99210.66;;;20.06;35.06
75972;BME280;64651;47.540;19.088;2024-03-23T15:02:14;99214.81;;;19.93;35.20
75972;BME280;64651;47.540;19.088;2024-03-23T15:07:15;99214.03;;;19.96;35.66
75972;BME280;64651;47.540;19.088;2024-03-23T15:12:17;99223.41;;;19.84;35.65
75972;BME280;64651;47.540;19.088;2024-03-23T15:17:18;99222.72;;;19.91;35.79
75972;BME280;64651;47.540;19.088;2024-03-23T15:22:20;99221.88;;;19.87;36.18
75972;BME280;64651;47.540;19.088;2024-03-23T15:27:22;99213.56;;;19.91;36.62
75972;BME280;64651;47.540;19.088;2024-03-23T15:32:23;99212.25;;;19.84;36.72
75972;BME280;64651;47.540;19.088;2024-03-23T15:37:24;99216.50;;;19.78;36.66
75972;BME280;64651;47.540;19.088;2024-03-23T15:42:25;99224.16;;;19.81;36.95
75972;BME280;64651;47.540;19.088;2024-03-23T15:47:27;99216.31;;;19.68;37.18
75972;BME280;64651;47.540;19.088;2024-03-23T15:52:28;99211.81;;;19.44;37.83
75972;BME280;64651;47.540;19.088;2024-03-23T15:57:29;99211.66;;;19.18;38.14
75972;BME280;64651;47.540;19.088;2024-03-23T16:02:31;99208.28;;;19.09;38.37
75972;BME280;64651;47.540;19.088;2024-03-23T16:07:32;99218.94;;;19.22;38.00
75972;BME280;64651;47.540;19.088;2024-03-23T16:18:07;99220.84;;;19.37;37.44
75972;BME280;64651;47.540;19.088;2024-03-23T16:23:08;99219.22;;;19.17;37.42
75972;BME280;64651;47.540;19.088;2024-03-23T16:28:10;99217.00;;;19.07;37.47
75972;BME280;64651;47.540;19.088;2024-03-23T16:33:11;99215.75;;;19.04;37.71
75972;BME280;64651;47.540;19.088;2024-03-23T16:38:12;99211.03;;;18.89;38.37
75972;BME280;64651;47.540;19.088;2024-03-23T16:43:14;99209.66;;;18.64;39.02
75972;BME280;64651;47.540;19.088;2024-03-23T16:48:15;99202.03;;;18.45;39.19
75972;BME280;64651;47.540;19.088;2024-03-23T16:53:16;99203.28;;;18.32;39.63
75972;BME280;64651;47.540;19.088;2024-03-23T16:58:17;99199.59;;;18.12;40.10
75972;BME280;64651;47.540;19.088;2024-03-23T17:03:19;99207.22;;;18.00;40.62
75972;BME280;64651;47.540;19.088;2024-03-23T17:08:21;99278.34;;;18.13;40.93
75972;BME280;64651;47.540;19.088;2024-03-23T17:13:23;99285.13;;;16.92;44.42
75972;BME280;64651;47.540;19.088;2024-03-23T17:18:25;99270.31;;;16.51;45.71
75972;BME280;64651;47.540;19.088;2024-03-23T17:23:27;99327.16;;;15.55;46.84
75972;BME280;64651;47.540;19.088;2024-03-23T17:28:29;99334.66;;;15.05;48.09
75972;BME280;64651;47.540;19.088;2024-03-23T17:33:30;99348.94;;;14.77;49.16
75972;BME280;64651;47.540;19.088;2024-03-23T17:38:31;99361.19;;;14.38;50.55
75972;BME280;64651;47.540;19.088;2024-03-23T17:43:32;99357.12;;;14.10;51.29
75972;BME280;64651;47.540;19.088;2024-03-23T17:48:34;99381.56;;;13.82;51.47
75972;BME280;64651;47.540;19.088;2024-03-23T17:53:39;99384.47;;;13.86;51.64
75972;BME280;64651;47.540;19.088;2024-03-23T17:58:40;99374.25;;;13.52;53.78
75972;BME280;64651;47.540;19.088;2024-03-23T18:03:41;99383.81;;;13.37;55.40
75972;BME280;64651;47.540;19.088;2024-03-23T18:08:43;99394.19;;;13.31;56.27
75972;BME280;64651;47.540;19.088;2024-03-23T18:13:44;99393.47;;;13.09;58.12
75972;BME280;64651;47.540;19.088;2024-03-23T18:18:45;99416.00;;;12.93;59.36
75972;BME280;64651;47.540;19.088;2024-03-23T18:23:47;99429.09;;;12.48;59.87
75972;BME280;64651;47.540;19.088;2024-03-23T18:28:50;99415.69;;;12.55;59.46
75972;BME280;64651;47.540;19.088;2024-03-23T18:33:54;99426.31;;;12.17;59.24
75972;BME280;64651;47.540;19.088;2024-03-23T18:38:58;99433.81;;;12.03;57.57
75972;BME280;64651;47.540;19.088;2024-03-23T18:44:02;99427.63;;;11.98;56.47
75972;BME280;64651;47.540;19.088;2024-03-23T18:49:03;99428.00;;;11.83;55.43
75972;BME280;64651;47.540;19.088;2024-03-23T18:54:05;99445.41;;;11.92;54.74
75972;BME280;64651;47.540;19.088;2024-03-23T18:59:06;99446.50;;;11.55;55.83
75972;BME280;64651;47.540;19.088;2024-03-23T19:04:07;99446.03;;;11.39;56.77
75972;BME280;64651;47.540;19.088;2024-03-23T19:09:08;99444.91;;;11.26;57.71
75972;BME280;64651;47.540;19.088;2024-03-23T19:14:09;99438.19;;;11.19;58.34
75972;BME280;64651;47.540;19.088;2024-03-23T19:19:11;99438.47;;;11.17;58.27
75972;BME280;64651;47.540;19.088;2024-03-23T19:24:12;99438.38;;;11.22;58.59
75972;BME280;64651;47.540;19.088;2024-03-23T19:29:14;99474.06;;;11.00;60.22
75972;BME280;64651;47.540;19.088;2024-03-23T19:34:15;99448.38;;;11.05;60.77
75972;BME280;64651;47.540;19.088;2024-03-23T19:39:17;99467.31;;;10.92;62.18
75972;BME280;64651;47.540;19.088;2024-03-23T19:44:18;99465.06;;;10.67;64.36
75972;BME280;64651;47.540;19.088;2024-03-23T19:49:19;99474.53;;;10.29;66.60
75972;BME280;64651;47.540;19.088;2024-03-23T19:54:21;99519.72;;;10.23;69.44
75972;BME280;64651;47.540;19.088;2024-03-23T19:59:25;99501.94;;;10.15;69.50
75972;BME280;64651;47.540;19.088;2024-03-23T20:04:26;99517.31;;;9.97;70.33
75972;BME280;64651;47.540;19.088;2024-03-23T20:09:27;99523.34;;;9.81;72.85
75972;BME280;64651;47.540;19.088;2024-03-23T20:14:30;99525.91;;;9.29;76.18
75972;BME280;64651;47.540;19.088;2024-03-23T20:19:31;99532.19;;;8.53;83.53
75972;BME280;64651;47.540;19.088;2024-03-23T20:24:33;99542.56;;;8.57;80.00
75972;BME280;64651;47.540;19.088;2024-03-23T20:29:34;99557.34;;;8.61;79.59
75972;BME280;64651;47.540;19.088;2024-03-23T20:34:35;99552.75;;;8.51;79.79
75972;BME280;64651;47.540;19.088;2024-03-23T20:39:37;99534.44;;;8.46;76.79
75972;BME280;64651;47.540;19.088;2024-03-23T20:44:38;99535.81;;;8.44;76.00
75972;BME280;64651;47.540;19.088;2024-03-23T20:49:40;99543.50;;;8.42;76.17
75972;BME280;64651;47.540;19.088;2024-03-23T20:54:42;99546.63;;;8.64;76.42
75972;BME280;64651;47.540;19.088;2024-03-23T20:59:44;99553.97;;;8.69;75.00
75972;BME280;64651;47.540;19.088;2024-03-23T21:04:46;99520.75;;;8.75;72.66
75972;BME280;64651;47.540;19.088;2024-03-23T21:09:47;99514.25;;;8.95;69.15
75972;BME280;64651;47.540;19.088;2024-03-23T21:14:50;99517.34;;;9.12;68.43
75972;BME280;64651;47.540;19.088;2024-03-23T21:19:51;99505.75;;;9.15;67.43
75972;BME280;64651;47.540;19.088;2024-03-23T21:24:52;99518.03;;;9.23;66.44
75972;BME280;64651;47.540;19.088;2024-03-23T21:29:53;99508.34;;;9.30;65.83
75972;BME280;64651;47.540;19.088;2024-03-23T21:34:54;99485.00;;;9.33;67.31
75972;BME280;64651;47.540;19.088;2024-03-23T21:39:56;99501.22;;;9.29;65.69
75972;BME280;64651;47.540;19.088;2024-03-23T21:44:58;99500.63;;;9.32;63.83
75972;BME280;64651;47.540;19.088;2024-03-23T21:49:59;99497.31;;;9.54;63.71
75972;BME280;64651;47.540;19.088;2024-03-23T21:55:00;99482.25;;;9.52;62.36
75972;BME280;64651;47.540;19.088;2024-03-23T22:00:02;99471.56;;;9.50;60.45
75972;BME280;64651;47.540;19.088;2024-03-23T22:05:03;99475.00;;;9.61;61.03
75972;BME280;64651;47.540;19.088;2024-03-23T22:10:05;99495.75;;;9.48;60.27
75972;BME280;64651;47.540;19.088;2024-03-23T22:15:08;99512.34;;;9.62;60.70
75972;BME280;64651;47.540;19.088;2024-03-23T22:20:09;99505.94;;;9.66;59.57
75972;BME280;64651;47.540;19.088;2024-03-23T22:25:12;99539.56;;;9.58;59.65
75972;BME280;64651;47.540;19.088;2024-03-23T22:30:13;99553.34;;;9.53;60.11
75972;BME280;64651;47.540;19.088;2024-03-23T22:35:14;99539.41;;;9.50;60.38
75972;BME280;64651;47.540;19.088;2024-03-23T22:40:15;99556.09;;;9.53;61.37
75972;BME280;64651;47.540;19.088;2024-03-23T22:45:17;99588.00;;;9.49;61.85
75972;BME280;64651;47.540;19.088;2024-03-23T22:50:18;99583.75;;;9.38;62.67
75972;BME280;64651;47.540;19.088;2024-03-23T22:55:19;99552.44;;;9.39;63.61
75972;BME280;64651;47.540;19.088;2024-03-23T23:00:21;99540.94;;;9.37;64.21
75972;BME280;64651;47.540;19.088;2024-03-23T23:05:23;99517.53;;;9.40;65.41
75972;BME280;64651;47.540;19.088;2024-03-23T23:10:24;99503.03;;;9.39;65.48
75972;BME280;64651;47.540;19.088;2024-03-23T23:15:26;99508.34;;;9.30;65.99
75972;BME280;64651;47.540;19.088;2024-03-23T23:20:27;99504.72;;;9.35;65.89
75972;BME280;64651;47.540;19.088;2024-03-23T23:25:29;99474.69;;;9.44;65.92
75972;BME280;64651;47.540;19.088;2024-03-23T23:30:30;99470.06;;;9.58;65.36
75972;BME280;64651;47.540;19.088;2024-03-23T23:35:31;99484.34;;;9.60;64.38
75972;BME280;64651;47.540;19.088;2024-03-23T23:40:32;99480.94;;;9.49;65.67
75972;BME280;64651;47.540;19.088;2024-03-23T23:45:34;99485.06;;;9.47;66.21
75972;BME280;64651;47.540;19.088;2024-03-23T23:50:35;99471.41;;;9.42;65.83
75972;BME280;64651;47.540;19.088;2024-03-23T23:55:36;99485.22;;;9.36;65.66
